sensor_id;sensor_type;location;lat;lon;timestamp;P1;durP1;ratioP1;P2;durP2;ratioP2
74920;SDS011;63483;47.384;8.860;2023-03-09T00:01:41;1.42;;;0.45;;
74920;SDS011;63483;47.384;8.860;2023-03-09T00:04:08;2.97;;;0.80;;
74920;SDS011;63483;47.384;8.860;2023-03-09T00:06:38;0.82;;;0.25;;
74920;SDS011;63483;47.384;8.860;2023-03-09T00:09:03;0.80;;;0.20;;
74920;SDS011;63483;47.384;8.860;2023-03-09T00:11:29;1.03;;;0.30;;
74920;SDS011;63483;47.384;8.860;2023-03-09T00:13:54;0.82;;;0.32;;
74920;SDS011;63483;47.384;8.860;2023-03-09T00:16:24;1.10;;;0.40;;
74920;SDS011;63483;47.384;8.860;2023-03-09T00:18:52;1.25;;;0.40;;
74920;SDS011;63483;47.384;8.860;2023-03-09T00:21:19;0.93;;;0.47;;
74920;SDS011;63483;47.384;8.860;2023-03-09T00:24:16;1.20;;;0.57;;
74920;SDS011;63483;47.384;8.860;2023-03-09T00:26:46;1.60;;;0.37;;
74920;SDS011;63483;47.384;8.860;2023-03-09T00:29:13;2.45;;;0.30;;
74920;SDS011;63483;47.384;8.860;2023-03-09T00:31:39;1.02;;;0.47;;
74920;SDS011;63483;47.384;8.860;2023-03-09T00:34:06;1.52;;;0.70;;
74920;SDS011;63483;47.384;8.860;2023-03-09T00:36:32;1.57;;;0.73;;
74920;SDS011;63483;47.384;8.860;2023-03-09T00:38:58;1.17;;;0.40;;
74920;SDS011;63483;47.384;8.860;2023-03-09T00:41:24;1.30;;;0.37;;
74920;SDS011;63483;47.384;8.860;2023-03-09T00:43:55;2.03;;;0.60;;
74920;SDS011;63483;47.384;8.860;2023-03-09T00:46:24;1.42;;;0.32;;
74920;SDS011;63483;47.384;8.860;2023-03-09T00:48:50;0.90;;;0.43;;
74920;SDS011;63483;47.384;8.860;2023-03-09T00:51:16;1.13;;;0.50;;
74920;SDS011;63483;47.384;8.860;2023-03-09T00:53:42;0.90;;;0.43;;
74920;SDS011;63483;47.384;8.860;2023-03-09T00:56:08;0.80;;;0.20;;
74920;SDS011;63483;47.384;8.860;2023-03-09T00:58:39;1.52;;;0.55;;
74920;SDS011;63483;47.384;8.860;2023-03-09T01:01:08;0.90;;;0.50;;
74920;SDS011;63483;47.384;8.860;2023-03-09T01:03:35;1.02;;;0.50;;
74920;SDS011;63483;47.384;8.860;2023-03-09T01:06:00;0.80;;;0.45;;
74920;SDS011;63483;47.384;8.860;2023-03-09T01:08:26;0.80;;;0.30;;
74920;SDS011;63483;47.384;8.860;2023-03-09T01:10:51;0.83;;;0.30;;
74920;SDS011;63483;47.384;8.860;2023-03-09T01:13:16;0.70;;;0.20;;
74920;SDS011;63483;47.384;8.860;2023-03-09T01:15:42;1.43;;;0.30;;
74920;SDS011;63483;47.384;8.860;2023-03-09T01:18:07;1.13;;;0.40;;
74920;SDS011;63483;47.384;8.860;2023-03-09T01:20:32;1.92;;;0.30;;
74920;SDS011;63483;47.384;8.860;2023-03-09T01:22:58;1.07;;;0.40;;
74920;SDS011;63483;47.384;8.860;2023-03-09T01:25:23;0.93;;;0.30;;
74920;SDS011;63483;47.384;8.860;2023-03-09T01:27:50;1.77;;;0.40;;
74920;SDS011;63483;47.384;8.860;2023-03-09T01:30:16;1.25;;;0.77;;
74920;SDS011;63483;47.384;8.860;2023-03-09T01:32:41;0.90;;;0.50;;
74920;SDS011;63483;47.384;8.860;2023-03-09T01:35:07;1.27;;;0.47;;
74920;SDS011;63483;47.384;8.860;2023-03-09T01:37:32;0.90;;;0.60;;
74920;SDS011;63483;47.384;8.860;2023-03-09T01:39:58;0.73;;;0.50;;
74920;SDS011;63483;47.384;8.860;2023-03-09T01:42:23;2.88;;;0.40;;
74920;SDS011;63483;47.384;8.860;2023-03-09T01:47:57;1.13;;;0.60;;
74920;SDS011;63483;47.384;8.860;2023-03-09T01:50:29;1.25;;;0.30;;
74920;SDS011;63483;47.384;8.860;2023-03-09T01:52:56;1.10;;;0.60;;
74920;SDS011;63483;47.384;8.860;2023-03-09T01:55:42;2.00;;;0.43;;
74920;SDS011;63483;47.384;8.860;2023-03-09T01:58:13;2.47;;;0.30;;
74920;SDS011;63483;47.384;8.860;2023-03-09T02:00:42;1.17;;;0.30;;
74920;SDS011;63483;47.384;8.860;2023-03-09T02:03:12;2.28;;;0.22;;
74920;SDS011;63483;47.384;8.860;2023-03-09T02:05:58;1.10;;;0.27;;
74920;SDS011;63483;47.384;8.860;2023-03-09T02:08:25;2.55;;;0.47;;
74920;SDS011;63483;47.384;8.860;2023-03-09T02:10:56;0.85;;;0.30;;
74920;SDS011;63483;47.384;8.860;2023-03-09T02:13:31;1.10;;;0.30;;
74920;SDS011;63483;47.384;8.860;2023-03-09T02:16:00;1.75;;;0.40;;
74920;SDS011;63483;47.384;8.860;2023-03-09T02:18:26;1.53;;;0.40;;
74920;SDS011;63483;47.384;8.860;2023-03-09T02:23:35;1.70;;;0.23;;
74920;SDS011;63483;47.384;8.860;2023-03-09T02:28:38;1.45;;;0.30;;
74920;SDS011;63483;47.384;8.860;2023-03-09T02:31:04;2.10;;;0.57;;
74920;SDS011;63483;47.384;8.860;2023-03-09T02:33:31;0.82;;;0.40;;
74920;SDS011;63483;47.384;8.860;2023-03-09T02:35:57;1.87;;;0.30;;
74920;SDS011;63483;47.384;8.860;2023-03-09T02:38:24;1.27;;;0.20;;
74920;SDS011;63483;47.384;8.860;2023-03-09T02:40:50;2.15;;;0.43;;
74920;SDS011;63483;47.384;8.860;2023-03-09T02:43:18;2.75;;;0.63;;
74920;SDS011;63483;47.384;8.860;2023-03-09T02:45:46;2.43;;;0.53;;
74920;SDS011;63483;47.384;8.860;2023-03-09T02:48:13;2.00;;;0.73;;
74920;SDS011;63483;47.384;8.860;2023-03-09T02:50:39;1.17;;;0.30;;
74920;SDS011;63483;47.384;8.860;2023-03-09T02:53:04;2.17;;;0.60;;
74920;SDS011;63483;47.384;8.860;2023-03-09T02:55:30;1.15;;;0.57;;
74920;SDS011;63483;47.384;8.860;2023-03-09T02:57:55;1.13;;;0.57;;
74920;SDS011;63483;47.384;8.860;2023-03-09T03:00:20;2.47;;;0.50;;
74920;SDS011;63483;47.384;8.860;2023-03-09T03:02:46;1.40;;;0.40;;
74920;SDS011;63483;47.384;8.860;2023-03-09T03:05:12;1.97;;;1.27;;
74920;SDS011;63483;47.384;8.860;2023-03-09T03:07:37;1.60;;;0.60;;
74920;SDS011;63483;47.384;8.860;2023-03-09T03:10:03;1.35;;;0.50;;
74920;SDS011;63483;47.384;8.860;2023-03-09T03:12:29;2.77;;;0.53;;
74920;SDS011;63483;47.384;8.860;2023-03-09T03:14:54;0.97;;;0.20;;
74920;SDS011;63483;47.384;8.860;2023-03-09T03:17:19;1.40;;;0.70;;
74920;SDS011;63483;47.384;8.860;2023-03-09T03:19:45;0.90;;;0.30;;
74920;SDS011;63483;47.384;8.860;2023-03-09T03:22:10;2.57;;;0.80;;
74920;SDS011;63483;47.384;8.860;2023-03-09T03:24:36;1.23;;;0.40;;
74920;SDS011;63483;47.384;8.860;2023-03-09T03:27:02;2.78;;;0.50;;
74920;SDS011;63483;47.384;8.860;2023-03-09T03:29:28;1.63;;;0.33;;
74920;SDS011;63483;47.384;8.860;2023-03-09T03:31:53;1.80;;;0.40;;
74920;SDS011;63483;47.384;8.860;2023-03-09T03:34:18;2.23;;;0.43;;
74920;SDS011;63483;47.384;8.860;2023-03-09T03:36:44;2.53;;;0.50;;
74920;SDS011;63483;47.384;8.860;2023-03-09T03:39:09;1.23;;;0.35;;
74920;SDS011;63483;47.384;8.860;2023-03-09T03:41:35;2.00;;;0.80;;
74920;SDS011;63483;47.384;8.860;2023-03-09T03:44:00;1.67;;;0.20;;
74920;SDS011;63483;47.384;8.860;2023-03-09T03:46:26;1.63;;;0.30;;
74920;SDS011;63483;47.384;8.860;2023-03-09T03:48:51;1.38;;;0.40;;
74920;SDS011;63483;47.384;8.860;2023-03-09T03:51:16;1.40;;;0.83;;
74920;SDS011;63483;47.384;8.860;2023-03-09T03:53:42;1.83;;;0.90;;
74920;SDS011;63483;47.384;8.860;2023-03-09T03:56:08;2.83;;;0.70;;
74920;SDS011;63483;47.384;8.860;2023-03-09T03:58:33;2.38;;;0.80;;
74920;SDS011;63483;47.384;8.860;2023-03-09T04:00:59;1.55;;;0.65;;
74920;SDS011;63483;47.384;8.860;2023-03-09T04:03:24;2.07;;;0.67;;
74920;SDS011;63483;47.384;8.860;2023-03-09T04:05:49;1.33;;;0.53;;
74920;SDS011;63483;47.384;8.860;2023-03-09T04:08:15;1.10;;;0.37;;
74920;SDS011;63483;47.384;8.860;2023-03-09T04:10:40;2.00;;;0.50;;
74920;SDS011;63483;47.384;8.860;2023-03-09T04:13:06;4.90;;;0.43;;
74920;SDS011;63483;47.384;8.860;2023-03-09T04:15:32;2.17;;;0.50;;
74920;SDS011;63483;47.384;8.860;2023-03-09T04:17:58;1.02;;;0.30;;
74920;SDS011;63483;47.384;8.860;2023-03-09T04:20:23;1.60;;;0.40;;
74920;SDS011;63483;47.384;8.860;2023-03-09T04:22:49;1.30;;;0.40;;
74920;SDS011;63483;47.384;8.860;2023-03-09T04:25:14;2.17;;;0.70;;
74920;SDS011;63483;47.384;8.860;2023-03-09T04:27:40;2.63;;;0.98;;
74920;SDS011;63483;47.384;8.860;2023-03-09T04:30:06;2.55;;;0.70;;
74920;SDS011;63483;47.384;8.860;2023-03-09T04:32:33;2.07;;;0.80;;
74920;SDS011;63483;47.384;8.860;2023-03-09T04:34:58;1.73;;;0.43;;
74920;SDS011;63483;47.384;8.860;2023-03-09T04:37:23;1.40;;;0.40;;
74920;SDS011;63483;47.384;8.860;2023-03-09T04:39:49;1.30;;;0.50;;
74920;SDS011;63483;47.384;8.860;2023-03-09T04:42:14;1.53;;;1.20;;
74920;SDS011;63483;47.384;8.860;2023-03-09T04:44:39;1.90;;;1.00;;
74920;SDS011;63483;47.384;8.860;2023-03-09T04:47:05;2.53;;;0.80;;
74920;SDS011;63483;47.384;8.860;2023-03-09T04:49:31;2.88;;;0.73;;
74920;SDS011;63483;47.384;8.860;2023-03-09T04:51:56;1.80;;;0.60;;
74920;SDS011;63483;47.384;8.860;2023-03-09T04:54:22;1.63;;;0.25;;
74920;SDS011;63483;47.384;8.860;2023-03-09T04:56:47;1.40;;;0.57;;
74920;SDS011;63483;47.384;8.860;2023-03-09T04:59:13;1.20;;;0.60;;
74920;SDS011;63483;47.384;8.860;2023-03-09T05:01:38;0.90;;;0.30;;
74920;SDS011;63483;47.384;8.860;2023-03-09T05:04:03;1.00;;;0.40;;
74920;SDS011;63483;47.384;8.860;2023-03-09T05:06:29;0.77;;;0.33;;
74920;SDS011;63483;47.384;8.860;2023-03-09T05:08:54;0.88;;;0.47;;
74920;SDS011;63483;47.384;8.860;2023-03-09T05:11:19;0.60;;;0.30;;
74920;SDS011;63483;47.384;8.860;2023-03-09T05:13:45;0.70;;;0.47;;
74920;SDS011;63483;47.384;8.860;2023-03-09T05:16:10;0.80;;;0.30;;
74920;SDS011;63483;47.384;8.860;2023-03-09T05:18:35;0.93;;;0.33;;
74920;SDS011;63483;47.384;8.860;2023-03-09T05:21:04;0.80;;;0.43;;
74920;SDS011;63483;47.384;8.860;2023-03-09T05:23:32;0.63;;;0.22;;
74920;SDS011;63483;47.384;8.860;2023-03-09T05:25:58;1.17;;;0.85;;
74920;SDS011;63483;47.384;8.860;2023-03-09T05:28:24;1.47;;;0.47;;
74920;SDS011;63483;47.384;8.860;2023-03-09T05:30:50;1.15;;;0.52;;
74920;SDS011;63483;47.384;8.860;2023-03-09T05:33:16;0.90;;;0.65;;
74920;SDS011;63483;47.384;8.860;2023-03-09T05:35:42;0.97;;;0.63;;
74920;SDS011;63483;47.384;8.860;2023-03-09T05:38:08;1.85;;;0.55;;
74920;SDS011;63483;47.384;8.860;2023-03-09T05:40:34;1.10;;;0.50;;
74920;SDS011;63483;47.384;8.860;2023-03-09T05:43:00;1.30;;;0.60;;
74920;SDS011;63483;47.384;8.860;2023-03-09T05:45:26;1.17;;;0.30;;
74920;SDS011;63483;47.384;8.860;2023-03-09T05:47:51;2.13;;;0.27;;
74920;SDS011;63483;47.384;8.860;2023-03-09T05:50:16;1.87;;;0.80;;
74920;SDS011;63483;47.384;8.860;2023-03-09T05:52:42;1.45;;;0.90;;
74920;SDS011;63483;47.384;8.860;2023-03-09T05:55:07;0.97;;;0.60;;
74920;SDS011;63483;47.384;8.860;2023-03-09T05:57:33;0.70;;;0.30;;
74920;SDS011;63483;47.384;8.860;2023-03-09T05:59:58;0.80;;;0.43;;
74920;SDS011;63483;47.384;8.860;2023-03-09T06:02:24;0.90;;;0.37;;
74920;SDS011;63483;47.384;8.860;2023-03-09T06:04:52;0.87;;;0.43;;
74920;SDS011;63483;47.384;8.860;2023-03-09T06:07:18;0.68;;;0.38;;
74920;SDS011;63483;47.384;8.860;2023-03-09T06:09:43;1.93;;;0.40;;
74920;SDS011;63483;47.384;8.860;2023-03-09T06:12:09;1.50;;;0.63;;
74920;SDS011;63483;47.384;8.860;2023-03-09T06:14:34;2.70;;;0.90;;
74920;SDS011;63483;47.384;8.860;2023-03-09T06:17:00;1.13;;;0.30;;
74920;SDS011;63483;47.384;8.860;2023-03-09T06:19:26;1.48;;;0.55;;
74920;SDS011;63483;47.384;8.860;2023-03-09T06:21:51;1.77;;;0.53;;
74920;SDS011;63483;47.384;8.860;2023-03-09T06:24:17;0.93;;;0.40;;
74920;SDS011;63483;47.384;8.860;2023-03-09T06:26:42;1.00;;;0.73;;
74920;SDS011;63483;47.384;8.860;2023-03-09T06:29:07;1.80;;;0.67;;
74920;SDS011;63483;47.384;8.860;2023-03-09T06:31:33;1.40;;;0.47;;
74920;SDS011;63483;47.384;8.860;2023-03-09T06:33:58;6.93;;;1.57;;
74920;SDS011;63483;47.384;8.860;2023-03-09T06:36:23;10.00;;;3.30;;
74920;SDS011;63483;47.384;8.860;2023-03-09T06:38:49;6.27;;;2.20;;
74920;SDS011;63483;47.384;8.860;2023-03-09T06:41:14;2.20;;;1.07;;
74920;SDS011;63483;47.384;8.860;2023-03-09T06:43:40;1.90;;;0.55;;
74920;SDS011;63483;47.384;8.860;2023-03-09T06:46:08;2.65;;;0.52;;
74920;SDS011;63483;47.384;8.860;2023-03-09T06:48:34;1.03;;;0.40;;
74920;SDS011;63483;47.384;8.860;2023-03-09T06:50:59;0.90;;;0.30;;
74920;SDS011;63483;47.384;8.860;2023-03-09T06:53:24;1.00;;;0.20;;
74920;SDS011;63483;47.384;8.860;2023-03-09T06:55:50;1.33;;;0.50;;
74920;SDS011;63483;47.384;8.860;2023-03-09T06:58:15;1.33;;;0.50;;
74920;SDS011;63483;47.384;8.860;2023-03-09T07:00:40;1.63;;;0.50;;
74920;SDS011;63483;47.384;8.860;2023-03-09T07:03:13;1.02;;;0.63;;
74920;SDS011;63483;47.384;8.860;2023-03-09T07:05:40;0.90;;;0.30;;
74920;SDS011;63483;47.384;8.860;2023-03-09T07:08:05;1.83;;;0.20;;
74920;SDS011;63483;47.384;8.860;2023-03-09T07:10:30;0.60;;;0.23;;
74920;SDS011;63483;47.384;8.860;2023-03-09T07:12:56;1.77;;;0.60;;
74920;SDS011;63483;47.384;8.860;2023-03-09T07:15:21;0.73;;;0.20;;
74920;SDS011;63483;47.384;8.860;2023-03-09T07:17:46;0.70;;;0.20;;
74920;SDS011;63483;47.384;8.860;2023-03-09T07:20:12;1.40;;;0.47;;
74920;SDS011;63483;47.384;8.860;2023-03-09T07:22:37;2.30;;;0.60;;
74920;SDS011;63483;47.384;8.860;2023-03-09T07:25:03;0.93;;;0.30;;
74920;SDS011;63483;47.384;8.860;2023-03-09T07:27:29;1.88;;;0.68;;
74920;SDS011;63483;47.384;8.860;2023-03-09T07:29:55;1.25;;;0.50;;
74920;SDS011;63483;47.384;8.860;2023-03-09T07:32:21;2.00;;;0.57;;
74920;SDS011;63483;47.384;8.860;2023-03-09T07:34:46;1.50;;;0.40;;
74920;SDS011;63483;47.384;8.860;2023-03-09T07:37:12;2.03;;;0.70;;
74920;SDS011;63483;47.384;8.860;2023-03-09T07:39:37;2.93;;;0.83;;
74920;SDS011;63483;47.384;8.860;2023-03-09T07:42:02;2.22;;;0.55;;
74920;SDS011;63483;47.384;8.860;2023-03-09T07:44:28;2.97;;;0.90;;
74920;SDS011;63483;47.384;8.860;2023-03-09T07:46:54;1.97;;;0.57;;
74920;SDS011;63483;47.384;8.860;2023-03-09T07:49:19;2.40;;;0.40;;
74920;SDS011;63483;47.384;8.860;2023-03-09T07:51:44;1.50;;;0.90;;
74920;SDS011;63483;47.384;8.860;2023-03-09T07:54:10;4.23;;;0.63;;
74920;SDS011;63483;47.384;8.860;2023-03-09T07:56:36;2.23;;;0.67;;
74920;SDS011;63483;47.384;8.860;2023-03-09T07:59:01;3.70;;;0.40;;
74920;SDS011;63483;47.384;8.860;2023-03-09T08:01:26;2.23;;;0.73;;
74920;SDS011;63483;47.384;8.860;2023-03-09T08:03:52;1.77;;;0.70;;
74920;SDS011;63483;47.384;8.860;2023-03-09T08:06:18;2.47;;;0.80;;
74920;SDS011;63483;47.384;8.860;2023-03-09T08:08:44;2.42;;;0.50;;
74920;SDS011;63483;47.384;8.860;2023-03-09T08:11:11;2.40;;;0.60;;
74920;SDS011;63483;47.384;8.860;2023-03-09T08:13:36;5.85;;;0.43;;
74920;SDS011;63483;47.384;8.860;2023-03-09T08:16:03;2.00;;;0.30;;
74920;SDS011;63483;47.384;8.860;2023-03-09T08:18:31;3.33;;;0.47;;
74920;SDS011;63483;47.384;8.860;2023-03-09T08:21:03;2.73;;;0.40;;
74920;SDS011;63483;47.384;8.860;2023-03-09T08:23:36;2.80;;;0.50;;
74920;SDS011;63483;47.384;8.860;2023-03-09T08:26:05;3.60;;;0.70;;
74920;SDS011;63483;47.384;8.860;2023-03-09T08:28:33;2.90;;;0.50;;
74920;SDS011;63483;47.384;8.860;2023-03-09T08:30:58;3.47;;;0.80;;
74920;SDS011;63483;47.384;8.860;2023-03-09T08:33:24;3.03;;;0.73;;
74920;SDS011;63483;47.384;8.860;2023-03-09T08:35:50;2.65;;;0.32;;
74920;SDS011;63483;47.384;8.860;2023-03-09T08:38:15;6.37;;;0.60;;
74920;SDS011;63483;47.384;8.860;2023-03-09T08:40:41;1.43;;;0.50;;
74920;SDS011;63483;47.384;8.860;2023-03-09T08:43:06;4.87;;;0.50;;
74920;SDS011;63483;47.384;8.860;2023-03-09T08:45:32;3.70;;;0.68;;
74920;SDS011;63483;47.384;8.860;2023-03-09T08:47:57;1.50;;;0.20;;
74920;SDS011;63483;47.384;8.860;2023-03-09T08:50:23;2.78;;;0.80;;
74920;SDS011;63483;47.384;8.860;2023-03-09T08:52:48;2.30;;;0.50;;
74920;SDS011;63483;47.384;8.860;2023-03-09T08:55:14;4.53;;;0.57;;
74920;SDS011;63483;47.384;8.860;2023-03-09T08:57:40;3.60;;;0.85;;
74920;SDS011;63483;47.384;8.860;2023-03-09T09:00:06;4.07;;;0.60;;
74920;SDS011;63483;47.384;8.860;2023-03-09T09:02:34;4.75;;;0.57;;
74920;SDS011;63483;47.384;8.860;2023-03-09T09:05:00;2.70;;;0.47;;
74920;SDS011;63483;47.384;8.860;2023-03-09T09:07:25;4.00;;;0.67;;
74920;SDS011;63483;47.384;8.860;2023-03-09T09:09:50;3.22;;;0.50;;
74920;SDS011;63483;47.384;8.860;2023-03-09T09:12:16;3.63;;;0.47;;
74920;SDS011;63483;47.384;8.860;2023-03-09T09:14:41;2.97;;;0.60;;
74920;SDS011;63483;47.384;8.860;2023-03-09T09:17:07;4.30;;;0.40;;
74920;SDS011;63483;47.384;8.860;2023-03-09T09:19:33;2.60;;;0.40;;
74920;SDS011;63483;47.384;8.860;2023-03-09T09:22:03;4.13;;;0.60;;
74920;SDS011;63483;47.384;8.860;2023-03-09T09:24:32;4.63;;;0.40;;
74920;SDS011;63483;47.384;8.860;2023-03-09T09:27:05;3.78;;;0.55;;
74920;SDS011;63483;47.384;8.860;2023-03-09T09:29:35;3.85;;;0.70;;
74920;SDS011;63483;47.384;8.860;2023-03-09T09:32:02;5.20;;;0.50;;
74920;SDS011;63483;47.384;8.860;2023-03-09T09:34:29;3.85;;;0.47;;
74920;SDS011;63483;47.384;8.860;2023-03-09T09:36:56;2.38;;;0.50;;
74920;SDS011;63483;47.384;8.860;2023-03-09T09:39:21;4.37;;;0.90;;
74920;SDS011;63483;47.384;8.860;2023-03-09T09:41:51;4.93;;;0.50;;
74920;SDS011;63483;47.384;8.860;2023-03-09T09:44:38;4.17;;;0.50;;
74920;SDS011;63483;47.384;8.860;2023-03-09T09:47:07;3.80;;;0.98;;
74920;SDS011;63483;47.384;8.860;2023-03-09T09:49:42;3.75;;;0.35;;
74920;SDS011;63483;47.384;8.860;2023-03-09T09:54:59;5.63;;;1.42;;
74920;SDS011;63483;47.384;8.860;2023-03-09T09:57:36;4.90;;;0.97;;
74920;SDS011;63483;47.384;8.860;2023-03-09T10:02:52;4.32;;;0.65;;
74920;SDS011;63483;47.384;8.860;2023-03-09T10:11:15;5.20;;;0.60;;
74920;SDS011;63483;47.384;8.860;2023-03-09T10:13:44;6.28;;;0.50;;
74920;SDS011;63483;47.384;8.860;2023-03-09T10:16:18;4.72;;;1.35;;
74920;SDS011;63483;47.384;8.860;2023-03-09T10:18:48;4.60;;;0.73;;
74920;SDS011;63483;47.384;8.860;2023-03-09T10:21:21;3.17;;;0.75;;
74920;SDS011;63483;47.384;8.860;2023-03-09T10:23:56;5.27;;;0.73;;
74920;SDS011;63483;47.384;8.860;2023-03-09T10:29:17;3.60;;;0.55;;
74920;SDS011;63483;47.384;8.860;2023-03-09T10:31:57;4.97;;;0.90;;
74920;SDS011;63483;47.384;8.860;2023-03-09T10:34:33;5.75;;;1.10;;
74920;SDS011;63483;47.384;8.860;2023-03-09T10:37:16;5.47;;;0.70;;
74920;SDS011;63483;47.384;8.860;2023-03-09T10:39:45;2.45;;;0.77;;
74920;SDS011;63483;47.384;8.860;2023-03-09T10:42:24;3.28;;;0.65;;
74920;SDS011;63483;47.384;8.860;2023-03-09T10:48:00;2.75;;;0.55;;
74920;SDS011;63483;47.384;8.860;2023-03-09T10:50:31;3.87;;;0.50;;
74920;SDS011;63483;47.384;8.860;2023-03-09T10:53:14;3.83;;;0.55;;
74920;SDS011;63483;47.384;8.860;2023-03-09T10:55:53;3.03;;;0.70;;
74920;SDS011;63483;47.384;8.860;2023-03-09T10:58:22;4.57;;;0.57;;
74920;SDS011;63483;47.384;8.860;2023-03-09T11:00:58;6.67;;;0.70;;
74920;SDS011;63483;47.384;8.860;2023-03-09T11:03:31;4.97;;;0.95;;
74920;SDS011;63483;47.384;8.860;2023-03-09T11:06:16;4.03;;;0.60;;
74920;SDS011;63483;47.384;8.860;2023-03-09T11:11:37;4.37;;;0.83;;
74920;SDS011;63483;47.384;8.860;2023-03-09T11:14:04;7.10;;;0.98;;
74920;SDS011;63483;47.384;8.860;2023-03-09T11:16:31;2.88;;;0.68;;
74920;SDS011;63483;47.384;8.860;2023-03-09T11:24:26;2.93;;;0.73;;
74920;SDS011;63483;47.384;8.860;2023-03-09T11:27:02;5.22;;;0.55;;
74920;SDS011;63483;47.384;8.860;2023-03-09T11:32:18;5.50;;;0.75;;
74920;SDS011;63483;47.384;8.860;2023-03-09T11:34:44;4.90;;;0.77;;
74920;SDS011;63483;47.384;8.860;2023-03-09T11:37:17;3.30;;;0.82;;
74920;SDS011;63483;47.384;8.860;2023-03-09T11:39:51;4.35;;;0.47;;
74920;SDS011;63483;47.384;8.860;2023-03-09T11:42:49;3.10;;;0.70;;
74920;SDS011;63483;47.384;8.860;2023-03-09T11:45:16;3.22;;;0.70;;
74920;SDS011;63483;47.384;8.860;2023-03-09T11:47:49;5.15;;;0.50;;
74920;SDS011;63483;47.384;8.860;2023-03-09T11:50:24;2.83;;;0.70;;
74920;SDS011;63483;47.384;8.860;2023-03-09T11:52:54;5.25;;;1.48;;
74920;SDS011;63483;47.384;8.860;2023-03-09T11:55:27;2.27;;;0.53;;
74920;SDS011;63483;47.384;8.860;2023-03-09T11:57:58;2.45;;;0.40;;
74920;SDS011;63483;47.384;8.860;2023-03-09T12:00:28;4.63;;;0.65;;
74920;SDS011;63483;47.384;8.860;2023-03-09T12:03:01;2.50;;;0.50;;
74920;SDS011;63483;47.384;8.860;2023-03-09T12:05:35;4.57;;;0.70;;
74920;SDS011;63483;47.384;8.860;2023-03-09T12:08:09;3.20;;;0.47;;
74920;SDS011;63483;47.384;8.860;2023-03-09T12:15:52;3.60;;;0.80;;
74920;SDS011;63483;47.384;8.860;2023-03-09T12:18:31;5.43;;;0.88;;
74920;SDS011;63483;47.384;8.860;2023-03-09T12:21:04;3.60;;;0.77;;
74920;SDS011;63483;47.384;8.860;2023-03-09T12:26:20;4.50;;;0.68;;
74920;SDS011;63483;47.384;8.860;2023-03-09T12:28:59;5.38;;;0.50;;
74920;SDS011;63483;47.384;8.860;2023-03-09T12:31:35;3.15;;;0.70;;
74920;SDS011;63483;47.384;8.860;2023-03-09T12:34:03;4.63;;;0.95;;
74920;SDS011;63483;47.384;8.860;2023-03-09T12:36:47;6.73;;;0.70;;
74920;SDS011;63483;47.384;8.860;2023-03-09T12:42:01;4.23;;;0.70;;
74920;SDS011;63483;47.384;8.860;2023-03-09T12:47:23;2.88;;;0.63;;
74920;SDS011;63483;47.384;8.860;2023-03-09T12:50:01;3.40;;;0.60;;
74920;SDS011;63483;47.384;8.860;2023-03-09T12:55:21;4.50;;;1.03;;
74920;SDS011;63483;47.384;8.860;2023-03-09T13:00:55;3.88;;;0.52;;
74920;SDS011;63483;47.384;8.860;2023-03-09T13:03:26;5.40;;;0.80;;
74920;SDS011;63483;47.384;8.860;2023-03-09T13:05:56;4.28;;;0.50;;
74920;SDS011;63483;47.384;8.860;2023-03-09T13:13:52;6.70;;;0.73;;
74920;SDS011;63483;47.384;8.860;2023-03-09T13:24:43;3.17;;;0.82;;
74920;SDS011;63483;47.384;8.860;2023-03-09T13:29:48;4.70;;;0.47;;
74920;SDS011;63483;47.384;8.860;2023-03-09T13:32:24;2.97;;;0.60;;
74920;SDS011;63483;47.384;8.860;2023-03-09T13:34:54;3.83;;;0.87;;
74920;SDS011;63483;47.384;8.860;2023-03-09T13:37:23;4.28;;;0.80;;
74920;SDS011;63483;47.384;8.860;2023-03-09T13:39:57;2.33;;;0.90;;
74920;SDS011;63483;47.384;8.860;2023-03-09T13:42:30;2.33;;;0.40;;
74920;SDS011;63483;47.384;8.860;2023-03-09T13:44:57;3.47;;;0.50;;
74920;SDS011;63483;47.384;8.860;2023-03-09T13:47:24;3.63;;;0.60;;
74920;SDS011;63483;47.384;8.860;2023-03-09T13:49:52;2.83;;;0.40;;
74920;SDS011;63483;47.384;8.860;2023-03-09T13:52:19;2.65;;;0.63;;
74920;SDS011;63483;47.384;8.860;2023-03-09T13:54:54;3.90;;;0.50;;
74920;SDS011;63483;47.384;8.860;2023-03-09T13:57:36;2.60;;;0.60;;
74920;SDS011;63483;47.384;8.860;2023-03-09T14:02:44;4.35;;;0.50;;
74920;SDS011;63483;47.384;8.860;2023-03-09T14:05:19;4.60;;;0.60;;
74920;SDS011;63483;47.384;8.860;2023-03-09T14:07:50;5.68;;;0.80;;
74920;SDS011;63483;47.384;8.860;2023-03-09T14:12:46;2.17;;;0.45;;
74920;SDS011;63483;47.384;8.860;2023-03-09T14:15:18;4.10;;;0.85;;
74920;SDS011;63483;47.384;8.860;2023-03-09T14:17:45;2.90;;;0.60;;
74920;SDS011;63483;47.384;8.860;2023-03-09T14:20:15;1.90;;;0.30;;
74920;SDS011;63483;47.384;8.860;2023-03-09T14:22:43;4.63;;;0.65;;
74920;SDS011;63483;47.384;8.860;2023-03-09T14:27:49;1.67;;;0.50;;
74920;SDS011;63483;47.384;8.860;2023-03-09T14:30:31;3.95;;;0.70;;
74920;SDS011;63483;47.384;8.860;2023-03-09T14:33:04;1.50;;;0.30;;
74920;SDS011;63483;47.384;8.860;2023-03-09T14:38:13;2.95;;;0.60;;
74920;SDS011;63483;47.384;8.860;2023-03-09T14:40:44;2.80;;;0.60;;
74920;SDS011;63483;47.384;8.860;2023-03-09T14:45:52;4.00;;;0.73;;
74920;SDS011;63483;47.384;8.860;2023-03-09T14:48:33;3.92;;;0.70;;
74920;SDS011;63483;47.384;8.860;2023-03-09T14:50:58;1.70;;;0.40;;
74920;SDS011;63483;47.384;8.860;2023-03-09T14:53:24;2.20;;;0.40;;
74920;SDS011;63483;47.384;8.860;2023-03-09T14:55:49;1.73;;;0.40;;
74920;SDS011;63483;47.384;8.860;2023-03-09T14:58:14;2.93;;;0.50;;
74920;SDS011;63483;47.384;8.860;2023-03-09T15:00:40;2.27;;;0.53;;
74920;SDS011;63483;47.384;8.860;2023-03-09T15:03:08;1.73;;;0.43;;
74920;SDS011;63483;47.384;8.860;2023-03-09T15:05:34;2.90;;;0.82;;
74920;SDS011;63483;47.384;8.860;2023-03-09T15:07:59;2.20;;;0.40;;
74920;SDS011;63483;47.384;8.860;2023-03-09T15:10:25;3.00;;;0.60;;
74920;SDS011;63483;47.384;8.860;2023-03-09T15:12:53;2.42;;;0.50;;
74920;SDS011;63483;47.384;8.860;2023-03-09T15:17:46;2.55;;;0.60;;
74920;SDS011;63483;47.384;8.860;2023-03-09T15:20:16;2.20;;;0.50;;
74920;SDS011;63483;47.384;8.860;2023-03-09T15:22:44;3.67;;;0.80;;
74920;SDS011;63483;47.384;8.860;2023-03-09T15:25:11;3.15;;;0.80;;
74920;SDS011;63483;47.384;8.860;2023-03-09T15:27:39;3.55;;;0.90;;
74920;SDS011;63483;47.384;8.860;2023-03-09T15:30:05;2.13;;;0.43;;
74920;SDS011;63483;47.384;8.860;2023-03-09T15:32:31;2.47;;;0.70;;
74920;SDS011;63483;47.384;8.860;2023-03-09T15:34:56;1.80;;;0.37;;
74920;SDS011;63483;47.384;8.860;2023-03-09T15:37:22;2.20;;;0.40;;
74920;SDS011;63483;47.384;8.860;2023-03-09T15:39:48;2.07;;;0.40;;
74920;SDS011;63483;47.384;8.860;2023-03-09T15:42:13;3.20;;;0.70;;
74920;SDS011;63483;47.384;8.860;2023-03-09T15:44:39;2.17;;;0.50;;
74920;SDS011;63483;47.384;8.860;2023-03-09T15:47:04;3.57;;;0.67;;
74920;SDS011;63483;47.384;8.860;2023-03-09T15:49:30;2.93;;;0.50;;
74920;SDS011;63483;47.384;8.860;2023-03-09T15:51:55;3.57;;;0.50;;
74920;SDS011;63483;47.384;8.860;2023-03-09T15:54:20;3.57;;;0.70;;
74920;SDS011;63483;47.384;8.860;2023-03-09T15:56:45;4.63;;;0.50;;
74920;SDS011;63483;47.384;8.860;2023-03-09T15:59:11;2.67;;;0.70;;
74920;SDS011;63483;47.384;8.860;2023-03-09T16:01:36;4.43;;;0.50;;
74920;SDS011;63483;47.384;8.860;2023-03-09T16:04:04;2.13;;;0.52;;
74920;SDS011;63483;47.384;8.860;2023-03-09T16:06:30;2.57;;;0.50;;
74920;SDS011;63483;47.384;8.860;2023-03-09T16:08:55;1.97;;;0.43;;
74920;SDS011;63483;47.384;8.860;2023-03-09T16:11:20;1.77;;;0.70;;
74920;SDS011;63483;47.384;8.860;2023-03-09T16:13:47;1.48;;;0.70;;
74920;SDS011;63483;47.384;8.860;2023-03-09T16:16:13;3.93;;;0.43;;
74920;SDS011;63483;47.384;8.860;2023-03-09T16:18:39;2.60;;;0.50;;
74920;SDS011;63483;47.384;8.860;2023-03-09T16:21:05;6.00;;;0.70;;